createdAt,value
2023-03-12T00:00:22.661Z,6.10
2023-03-12T00:02:50.223Z,3.77
2023-03-12T00:05:17.718Z,5.40
2023-03-12T00:07:44.852Z,4.23
2023-03-12T00:10:12.499Z,6.93
2023-03-12T00:12:39.943Z,5.47
2023-03-12T00:15:08.091Z,3.03
2023-03-12T00:17:35.580Z,4.27
2023-03-12T00:20:03.977Z,6.30
2023-03-12T00:22:31.467Z,7.63
2023-03-12T00:24:59.009Z,8.90
2023-03-12T00:27:26.897Z,8.43
2023-03-12T00:29:54.618Z,12.80
2023-03-12T00:32:22.280Z,7.17
2023-03-12T00:34:55.801Z,7.20
2023-03-12T00:37:23.368Z,10.07
2023-03-12T00:39:50.724Z,7.70
2023-03-12T00:42:18.246Z,6.80
2023-03-12T00:44:46.240Z,5.23
2023-03-12T00:47:14.072Z,5.30
2023-03-12T00:49:41.520Z,4.13
2023-03-12T00:52:09.030Z,3.93
2023-03-12T00:54:36.465Z,5.33
2023-03-12T00:57:03.832Z,6.93
2023-03-12T00:59:31.484Z,11.13
2023-03-12T01:01:59.097Z,3.53
2023-03-12T01:04:26.738Z,3.73
2023-03-12T01:06:55.988Z,6.77
2023-03-12T01:09:23.845Z,4.03
2023-03-12T01:11:51.342Z,2.83
2023-03-12T01:14:19.046Z,5.23
2023-03-12T01:16:46.593Z,4.30
2023-03-12T01:19:14.126Z,3.37
2023-03-12T01:21:41.603Z,3.63
2023-03-12T01:24:09.287Z,5.10
2023-03-12T01:26:36.723Z,5.60
2023-03-12T01:29:04.162Z,6.33
2023-03-12T01:31:31.716Z,4.33
2023-03-12T01:33:59.286Z,5.47
2023-03-12T01:36:28.993Z,6.00
2023-03-12T01:38:58.313Z,3.43
2023-03-12T01:41:26.470Z,3.83
2023-03-12T01:43:53.913Z,3.27
2023-03-12T01:46:33.272Z,2.87
2023-03-12T01:49:15.750Z,3.80
2023-03-12T01:51:53.912Z,4.93
2023-03-12T01:54:40.168Z,3.50
2023-03-12T01:57:10.492Z,6.60
2023-03-12T01:59:52.812Z,3.03
2023-03-12T02:02:23.906Z,5.90
2023-03-12T02:04:51.236Z,4.07
2023-03-12T02:07:18.772Z,3.50
2023-03-12T02:09:48.381Z,4.90
2023-03-12T02:12:16.555Z,4.27
2023-03-12T02:14:44.598Z,2.97
2023-03-12T02:17:11.919Z,4.03
2023-03-12T02:20:11.290Z,3.57
2023-03-12T02:22:39.326Z,2.63
2023-03-12T02:25:51.284Z,2.80
2023-03-12T02:28:20.170Z,3.33
2023-03-12T02:30:49.056Z,9.00
2023-03-12T02:33:17.081Z,3.53
2023-03-12T02:35:45.607Z,4.07
2023-03-12T02:38:36.007Z,2.77
2023-03-12T02:41:29.031Z,3.07
2023-03-12T02:43:58.541Z,6.60
2023-03-12T02:46:26.244Z,5.47
2023-03-12T02:48:53.683Z,5.40
2023-03-12T02:51:21.926Z,5.43
2023-03-12T02:53:55.210Z,3.43
2023-03-12T02:56:24.791Z,2.77
2023-03-12T02:58:52.071Z,4.63
2023-03-12T03:01:20.809Z,2.90
2023-03-12T03:03:48.519Z,3.37
2023-03-12T03:06:16.214Z,3.23
2023-03-12T03:08:43.880Z,2.60
2023-03-12T03:11:11.319Z,4.00
2023-03-12T03:13:38.783Z,2.87
2023-03-12T03:16:06.537Z,17.43
2023-03-12T03:18:34.018Z,7.63
2023-03-12T03:21:04.576Z,4.90
2023-03-12T03:23:32.118Z,2.63
2023-03-12T03:25:59.947Z,4.80
2023-03-12T03:28:28.116Z,2.60
2023-03-12T03:30:58.487Z,6.17
2023-03-12T03:33:25.870Z,5.67
2023-03-12T03:35:55.796Z,2.63
2023-03-12T03:38:24.418Z,9.80
2023-03-12T03:40:51.764Z,4.97
2023-03-12T03:43:19.096Z,4.13
2023-03-12T03:45:46.712Z,6.30
2023-03-12T03:48:14.279Z,3.93
2023-03-12T03:50:42.004Z,3.73
2023-03-12T03:53:09.699Z,3.87
2023-03-12T03:55:38.296Z,3.10
2023-03-12T03:58:06.171Z,6.30
2023-03-12T04:00:34.151Z,3.53
2023-03-12T04:03:01.402Z,3.47
2023-03-12T04:05:28.895Z,5.63
2023-03-12T04:07:56.491Z,4.67
2023-03-12T04:10:24.793Z,4.90
2023-03-12T04:12:53.096Z,3.00
2023-03-12T04:15:20.611Z,2.73
2023-03-12T04:17:48.103Z,4.57
2023-03-12T04:20:15.413Z,3.27
2023-03-12T04:22:42.603Z,4.30
2023-03-12T04:25:10.305Z,2.90
2023-03-12T04:27:37.672Z,4.20
2023-03-12T04:30:05.332Z,3.30
2023-03-12T04:32:32.548Z,2.00
2023-03-12T04:34:59.979Z,2.97
2023-03-12T04:37:27.779Z,2.93
2023-03-12T04:39:55.297Z,3.80
2023-03-12T04:42:22.791Z,3.10
2023-03-12T04:44:52.817Z,2.60
2023-03-12T04:47:20.267Z,3.47
2023-03-12T04:49:47.823Z,3.97
2023-03-12T04:52:15.174Z,4.53
2023-03-12T04:54:42.540Z,5.17
2023-03-12T04:57:09.889Z,3.03
2023-03-12T04:59:37.395Z,2.03
2023-03-12T05:02:04.980Z,3.00
2023-03-12T05:04:33.704Z,3.43
2023-03-12T05:07:01.340Z,7.00
2023-03-12T05:09:28.723Z,2.00
2023-03-12T05:11:56.320Z,2.47
2023-03-12T05:14:23.819Z,3.17
2023-03-12T05:16:50.978Z,4.90
2023-03-12T05:19:18.250Z,9.73
2023-03-12T05:21:45.640Z,2.57
2023-03-12T05:24:12.931Z,7.47
2023-03-12T05:26:40.679Z,6.33
2023-03-12T05:29:08.257Z,14.87
2023-03-12T05:31:36.847Z,19.40
2023-03-12T05:34:04.714Z,17.47
2023-03-12T05:36:31.917Z,14.87
2023-03-12T05:38:59.439Z,30.27
2023-03-12T05:41:28.393Z,31.83
2023-03-12T05:43:56.561Z,20.33
2023-03-12T05:46:25.086Z,13.73
2023-03-12T05:48:53.007Z,11.37
2023-03-12T05:51:22.489Z,8.47
2023-03-12T05:53:50.223Z,8.97
2023-03-12T05:56:18.377Z,7.10
2023-03-12T05:58:47.813Z,8.37
2023-03-12T06:01:20.714Z,14.00
2023-03-12T06:03:48.234Z,7.47
2023-03-12T06:06:15.831Z,3.63
2023-03-12T06:08:43.255Z,8.33
2023-03-12T06:11:10.668Z,10.33
2023-03-12T06:13:38.219Z,7.67
2023-03-12T06:16:06.823Z,5.03
2023-03-12T06:18:34.609Z,22.20
2023-03-12T06:21:15.889Z,24.07
2023-03-12T06:23:43.341Z,9.23
2023-03-12T06:26:11.368Z,10.87
2023-03-12T06:28:38.748Z,5.50
2023-03-12T06:31:06.276Z,21.87
2023-03-12T06:33:34.003Z,9.63
2023-03-12T06:36:03.232Z,6.97
2023-03-12T06:38:30.542Z,11.37
2023-03-12T06:41:02.846Z,8.53
2023-03-12T06:43:31.177Z,13.00
2023-03-12T06:45:59.407Z,21.17
2023-03-12T06:48:27.741Z,8.47
2023-03-12T06:50:55.214Z,8.60
2023-03-12T06:53:22.780Z,5.97
2023-03-12T06:55:50.900Z,6.33
2023-03-12T06:58:19.332Z,9.67
2023-03-12T07:00:47.010Z,5.20
2023-03-12T07:03:14.529Z,19.20
2023-03-12T07:05:45.385Z,8.37
2023-03-12T07:08:13.141Z,12.43
2023-03-12T07:10:41.095Z,18.90
2023-03-12T07:13:08.433Z,11.57
2023-03-12T07:15:35.984Z,27.10
2023-03-12T07:18:11.432Z,17.47
2023-03-12T07:20:40.280Z,16.50
2023-03-12T07:23:07.488Z,18.50
2023-03-12T07:25:38.932Z,34.50
2023-03-12T07:28:06.767Z,18.30
2023-03-12T07:30:34.284Z,17.40
2023-03-12T07:33:06.165Z,18.70
2023-03-12T07:35:33.932Z,18.57
2023-03-12T07:38:01.571Z,12.93
2023-03-12T07:40:29.317Z,14.67
2023-03-12T07:42:56.864Z,18.87
2023-03-12T07:45:24.468Z,23.17
2023-03-12T07:47:51.961Z,8.80
2023-03-12T07:50:19.762Z,12.53
2023-03-12T07:52:47.335Z,17.43
2023-03-12T07:55:15.208Z,19.50
2023-03-12T07:57:42.591Z,19.70
2023-03-12T08:00:11.216Z,14.10
2023-03-12T08:02:39.001Z,7.60
2023-03-12T08:05:07.093Z,34.30
2023-03-12T08:07:35.402Z,41.53
2023-03-12T08:10:03.937Z,7.57
2023-03-12T08:12:31.222Z,25.80
2023-03-12T08:14:58.737Z,63.43
2023-03-12T08:17:26.138Z,48.80
2023-03-12T08:19:53.502Z,20.03
2023-03-12T08:22:20.938Z,9.70
2023-03-12T08:24:48.791Z,16.73
2023-03-12T08:27:16.581Z,12.20
2023-03-12T08:29:43.667Z,21.87
2023-03-12T08:32:11.277Z,13.07
2023-03-12T08:34:39.177Z,3.80
2023-03-12T08:37:06.513Z,16.13
2023-03-12T08:39:33.789Z,8.93
2023-03-12T08:42:01.385Z,9.93
2023-03-12T08:44:29.120Z,3.97
2023-03-12T08:46:56.616Z,7.77
2023-03-12T08:49:24.314Z,10.20
2023-03-12T08:51:54.479Z,21.47
2023-03-12T08:54:21.744Z,7.50
2023-03-12T08:56:52.721Z,7.93
2023-03-12T08:59:20.951Z,18.30
2023-03-12T09:01:48.539Z,35.17
2023-03-12T09:04:16.714Z,19.27
2023-03-12T09:06:44.425Z,13.30
2023-03-12T09:09:11.872Z,9.43
2023-03-12T09:11:42.855Z,9.90
2023-03-12T09:16:58.494Z,9.40
2023-03-12T09:19:26.061Z,5.70
2023-03-12T09:21:53.587Z,11.33
2023-03-12T09:24:21.173Z,6.87
2023-03-12T09:26:49.299Z,11.40
2023-03-12T09:29:16.771Z,5.13
2023-03-12T09:31:44.037Z,5.63
2023-03-12T09:34:11.293Z,11.23
2023-03-12T09:36:38.527Z,23.27
2023-03-12T09:39:06.198Z,5.20
2023-03-12T09:41:36.451Z,9.60
2023-03-12T09:44:31.371Z,13.30
2023-03-12T09:47:09.444Z,15.90
2023-03-12T09:49:41.153Z,11.87
2023-03-12T09:52:26.266Z,12.40
2023-03-12T09:55:16.541Z,10.37
2023-03-12T09:57:44.784Z,9.10
2023-03-12T10:00:13.825Z,12.03
2023-03-12T10:03:05.993Z,10.37
2023-03-12T10:06:01.955Z,12.00
2023-03-12T10:08:47.476Z,8.27
2023-03-12T10:11:51.414Z,5.43
2023-03-12T10:14:51.583Z,6.67
2023-03-12T10:17:40.262Z,7.70
2023-03-12T10:20:19.791Z,7.30
2023-03-12T10:22:47.085Z,6.73
2023-03-12T10:25:22.246Z,6.83
2023-03-12T10:27:49.705Z,14.83
2023-03-12T10:30:27.352Z,8.13
2023-03-12T10:32:57.706Z,6.80
2023-03-12T10:35:27.060Z,7.03
2023-03-12T10:38:01.924Z,13.57
2023-03-12T10:40:31.512Z,5.17
2023-03-12T10:42:58.701Z,9.50
2023-03-12T10:45:53.135Z,6.77
2023-03-12T10:48:26.746Z,5.47
2023-03-12T10:51:04.602Z,10.87
2023-03-12T10:53:33.330Z,10.03
2023-03-12T10:56:12.052Z,8.33
2023-03-12T10:58:47.010Z,8.43
2023-03-12T11:01:30.548Z,11.13
2023-03-12T11:04:29.977Z,7.17
2023-03-12T11:07:31.335Z,9.77
2023-03-12T11:10:15.324Z,15.97
2023-03-12T11:13:01.878Z,4.90
2023-03-12T11:15:36.521Z,5.90
2023-03-12T11:18:21.124Z,7.53
2023-03-12T11:20:56.964Z,38.27
2023-03-12T11:23:29.731Z,20.20
2023-03-12T11:25:58.207Z,6.57
2023-03-12T11:28:29.583Z,6.53
2023-03-12T11:30:58.588Z,21.97
2023-03-12T11:33:26.234Z,10.00
2023-03-12T11:35:53.492Z,5.70
2023-03-12T11:38:26.829Z,5.23
2023-03-12T11:41:06.055Z,16.23
2023-03-12T11:43:43.723Z,52.57
2023-03-12T11:46:29.050Z,26.93
2023-03-12T11:49:15.983Z,33.47
2023-03-12T11:51:50.991Z,20.73
2023-03-12T11:54:46.808Z,36.07
2023-03-12T11:57:17.205Z,26.40
2023-03-12T12:00:07.500Z,8.00
2023-03-12T12:02:43.891Z,12.83
2023-03-12T12:05:23.658Z,6.40
2023-03-12T12:08:28.340Z,11.87
2023-03-12T12:11:10.663Z,8.50
2023-03-12T12:13:53.290Z,7.40
2023-03-12T12:16:31.112Z,13.63
2023-03-12T12:19:23.977Z,7.07
2023-03-12T12:22:09.999Z,9.43
2023-03-12T12:25:13.250Z,7.43
2023-03-12T12:28:20.518Z,8.03
2023-03-12T12:31:09.632Z,5.90
2023-03-12T12:33:59.016Z,36.03
2023-03-12T12:36:27.102Z,24.90
2023-03-12T12:38:57.417Z,7.47
2023-03-12T12:41:26.105Z,17.10
2023-03-12T12:44:01.594Z,9.40
2023-03-12T12:46:36.353Z,7.43
2023-03-12T12:49:26.848Z,10.13
2023-03-12T12:52:14.449Z,6.73
2023-03-12T12:55:13.272Z,18.20
2023-03-12T12:57:45.583Z,10.57
2023-03-12T13:00:45.275Z,8.70
2023-03-12T13:03:20.169Z,24.63
2023-03-12T13:05:53.746Z,8.10
2023-03-12T13:08:40.553Z,13.20
2023-03-12T13:11:27.977Z,9.40
2023-03-12T13:14:05.047Z,11.90
2023-03-12T13:16:39.586Z,13.63
2023-03-12T13:19:21.564Z,21.20
2023-03-12T13:22:13.921Z,12.17
2023-03-12T13:25:05.620Z,13.50
2023-03-12T13:27:38.250Z,12.00
2023-03-12T13:30:33.710Z,9.67
2023-03-12T13:33:02.101Z,19.17
2023-03-12T13:36:10.952Z,18.70
2023-03-12T13:38:40.313Z,9.07
2023-03-12T13:41:07.885Z,10.77
2023-03-12T13:43:38.058Z,8.10
2023-03-12T13:46:15.244Z,9.70
2023-03-12T13:48:49.044Z,12.50
2023-03-12T13:51:24.043Z,18.93
2023-03-12T13:53:54.000Z,9.23
2023-03-12T13:56:21.514Z,10.10
2023-03-12T13:58:56.480Z,67.80
2023-03-12T14:01:27.901Z,12.83
2023-03-12T14:04:01.496Z,16.10
2023-03-12T14:06:30.618Z,14.20
2023-03-12T14:09:13.743Z,16.73
2023-03-12T14:12:05.661Z,18.50
2023-03-12T14:14:51.396Z,20.27
2023-03-12T14:17:29.590Z,20.77
2023-03-12T14:20:17.313Z,15.13
2023-03-12T14:22:46.530Z,22.70
2023-03-12T14:25:17.040Z,14.37
2023-03-12T14:27:46.591Z,10.60
2023-03-12T14:30:24.264Z,17.67
2023-03-12T14:32:56.266Z,11.27
2023-03-12T14:35:45.314Z,15.00
2023-03-12T14:38:17.063Z,13.30
2023-03-12T14:40:58.454Z,17.60
2023-03-12T14:43:30.441Z,13.30
2023-03-12T14:46:14.714Z,56.33
2023-03-12T14:48:42.455Z,15.37
2023-03-12T14:51:41.694Z,22.37
2023-03-12T14:54:19.894Z,16.07
2023-03-12T14:56:47.136Z,15.80
2023-03-12T14:59:31.788Z,13.17
2023-03-12T15:02:05.851Z,17.47
2023-03-12T15:04:34.437Z,11.60
2023-03-12T15:07:05.043Z,13.97
2023-03-12T15:09:34.678Z,9.60
2023-03-12T15:12:07.654Z,9.70
2023-03-12T15:14:38.334Z,12.93
2023-03-12T15:17:05.957Z,15.53
2023-03-12T15:19:39.773Z,13.87
2023-03-12T15:22:18.000Z,8.53
2023-03-12T15:24:45.577Z,5.83
2023-03-12T15:27:25.619Z,8.77
2023-03-12T15:29:53.252Z,8.37
2023-03-12T15:32:21.482Z,9.53
2023-03-12T15:34:49.173Z,7.77
2023-03-12T15:37:24.699Z,8.20
2023-03-12T15:39:52.797Z,18.03
2023-03-12T15:42:23.864Z,9.50
2023-03-12T15:45:03.328Z,9.47
2023-03-12T15:47:32.947Z,7.80
2023-03-12T15:50:02.713Z,10.57
2023-03-12T15:52:34.671Z,6.47
2023-03-12T15:55:05.545Z,5.87
2023-03-12T15:57:34.414Z,8.90
2023-03-12T16:00:12.470Z,5.57
2023-03-12T16:03:08.452Z,9.27
2023-03-12T16:05:40.207Z,5.77
2023-03-12T16:08:29.747Z,7.63
2023-03-12T16:10:57.255Z,7.20
2023-03-12T16:13:28.821Z,8.10
2023-03-12T16:15:56.110Z,7.73
2023-03-12T16:18:23.511Z,7.33
2023-03-12T16:20:51.527Z,5.97
2023-03-12T16:23:19.383Z,6.07
2023-03-12T16:25:56.834Z,7.97
2023-03-12T16:28:37.873Z,8.57
2023-03-12T16:31:14.382Z,8.30
2023-03-12T16:33:42.256Z,8.10
2023-03-12T16:36:17.117Z,7.10
2023-03-12T16:38:45.337Z,8.63
2023-03-12T16:41:17.584Z,9.90
2023-03-12T16:43:50.305Z,11.60
2023-03-12T16:46:20.124Z,11.47
2023-03-12T16:48:51.397Z,10.20
2023-03-12T16:51:18.711Z,9.73
2023-03-12T16:53:49.136Z,9.90
2023-03-12T16:56:22.177Z,9.17
2023-03-12T16:58:54.712Z,11.13
2023-03-12T17:01:23.910Z,8.73
2023-03-12T17:03:53.538Z,12.37
2023-03-12T17:06:23.438Z,11.80
2023-03-12T17:08:51.176Z,10.83
2023-03-12T17:11:19.820Z,9.67
2023-03-12T17:13:49.149Z,9.43
2023-03-12T17:16:16.563Z,10.40
2023-03-12T17:18:44.113Z,11.13
2023-03-12T17:21:13.001Z,10.47
2023-03-12T17:23:40.459Z,11.17
2023-03-12T17:26:07.791Z,16.50
2023-03-12T17:28:35.300Z,15.97
2023-03-12T17:31:03.474Z,15.93
2023-03-12T17:33:31.103Z,13.93
2023-03-12T17:36:02.844Z,15.70
2023-03-12T17:38:30.883Z,14.50
2023-03-12T17:40:58.210Z,14.77
2023-03-12T17:43:25.696Z,16.10
2023-03-12T17:45:53.086Z,12.13
2023-03-12T17:48:23.414Z,12.63
2023-03-12T17:50:50.868Z,11.03
2023-03-12T17:53:18.309Z,15.33
2023-03-12T17:55:45.512Z,13.00
2023-03-12T17:58:12.975Z,14.53
2023-03-12T18:00:40.397Z,14.57
2023-03-12T18:03:07.865Z,13.57
2023-03-12T18:05:39.930Z,11.87
2023-03-12T18:08:07.529Z,15.00
2023-03-12T18:10:36.169Z,13.70
2023-03-12T18:13:03.605Z,17.77
2023-03-12T18:15:31.263Z,15.80
2023-03-12T18:17:59.229Z,28.93
2023-03-12T18:20:37.856Z,35.77
2023-03-12T18:23:06.425Z,30.43
2023-03-12T18:25:33.615Z,35.70
2023-03-12T18:28:01.008Z,20.37
2023-03-12T18:30:28.647Z,32.43
2023-03-12T18:32:56.096Z,35.97
2023-03-12T18:35:29.021Z,22.67
2023-03-12T18:38:00.122Z,24.73
2023-03-12T18:40:30.619Z,26.10
2023-03-12T18:42:58.879Z,16.27
2023-03-12T18:45:26.994Z,18.57
2023-03-12T18:47:54.410Z,25.83
2023-03-12T18:50:22.143Z,24.37
2023-03-12T18:52:49.543Z,19.30
2023-03-12T18:55:17.173Z,15.27
2023-03-12T18:57:45.055Z,19.20
2023-03-12T19:00:18.182Z,19.80
2023-03-12T19:02:47.871Z,18.30
2023-03-12T19:05:15.790Z,14.97
2023-03-12T19:07:43.009Z,29.00
2023-03-12T19:10:11.028Z,29.67
2023-03-12T19:12:50.987Z,72.80
2023-03-12T19:15:20.690Z,57.30
2023-03-12T19:17:48.193Z,29.03
2023-03-12T19:20:15.890Z,54.53
2023-03-12T19:22:43.193Z,25.33
2023-03-12T19:25:10.673Z,20.93
2023-03-12T19:27:38.062Z,18.10
2023-03-12T19:30:06.248Z,18.43
2023-03-12T19:32:43.327Z,13.23
2023-03-12T19:35:11.935Z,21.93
2023-03-12T19:37:39.469Z,19.60
2023-03-12T19:40:07.483Z,17.93
2023-03-12T19:42:34.915Z,17.63
2023-03-12T19:45:02.304Z,21.53
2023-03-12T19:47:30.028Z,18.70
2023-03-12T19:49:57.870Z,19.77
2023-03-12T19:52:25.233Z,18.90
2023-03-12T19:55:03.736Z,17.87
2023-03-12T19:57:32.150Z,15.33
2023-03-12T19:59:59.585Z,20.07
2023-03-12T20:02:27.085Z,15.60
2023-03-12T20:04:55.690Z,15.50
2023-03-12T20:07:22.969Z,22.00
2023-03-12T20:09:50.497Z,17.10
2023-03-12T20:12:17.700Z,23.70
2023-03-12T20:14:45.310Z,19.07
2023-03-12T20:17:13.786Z,18.27
2023-03-12T20:19:41.450Z,19.53
2023-03-12T20:22:08.716Z,16.87
2023-03-12T20:24:36.077Z,18.10
2023-03-12T20:27:04.424Z,22.63
2023-03-12T20:29:31.891Z,15.33
2023-03-12T20:31:59.207Z,16.17
2023-03-12T20:34:26.694Z,18.17
2023-03-12T20:36:54.085Z,19.57
2023-03-12T20:39:21.547Z,22.27
2023-03-12T20:41:49.784Z,20.17
2023-03-12T20:44:17.320Z,17.50
2023-03-12T20:46:44.972Z,19.87
2023-03-12T20:49:12.406Z,16.87
2023-03-12T20:51:40.847Z,20.50
2023-03-12T20:54:08.519Z,20.83
2023-03-12T20:56:36.313Z,14.83
2023-03-12T20:59:03.730Z,19.33
2023-03-12T21:01:31.589Z,18.87
2023-03-12T21:03:59.288Z,18.40
2023-03-12T21:06:27.158Z,21.30
2023-03-12T21:08:58.264Z,15.27
2023-03-12T21:11:27.235Z,16.97
2023-03-12T21:13:54.472Z,22.40
2023-03-12T21:16:21.780Z,21.87
2023-03-12T21:18:49.185Z,30.13
2023-03-12T21:21:16.768Z,21.07
2023-03-12T21:23:44.023Z,29.90
2023-03-12T21:26:11.402Z,26.13
2023-03-12T21:28:38.681Z,24.27
2023-03-12T21:31:16.470Z,22.77
2023-03-12T21:33:44.092Z,20.10
2023-03-12T21:36:13.075Z,21.30
2023-03-12T21:38:41.070Z,19.73
2023-03-12T21:41:09.330Z,17.10
2023-03-12T21:43:37.382Z,18.83
2023-03-12T21:46:08.579Z,15.17
2023-03-12T21:48:36.026Z,17.93
2023-03-12T21:51:04.808Z,21.53
2023-03-12T21:53:32.385Z,18.73
2023-03-12T21:56:00.732Z,17.80
2023-03-12T21:58:28.472Z,22.90
2023-03-12T22:01:12.810Z,17.90
2023-03-12T22:03:40.847Z,19.37
2023-03-12T22:06:08.664Z,21.33
2023-03-12T22:08:36.509Z,13.73
2023-03-12T22:11:04.876Z,10.97
2023-03-12T22:13:32.121Z,12.63
2023-03-12T22:16:06.452Z,12.53
2023-03-12T22:18:36.485Z,12.97
2023-03-12T22:21:05.592Z,14.40
2023-03-12T22:23:33.186Z,11.77
2023-03-12T22:26:01.879Z,10.70
2023-03-12T22:28:29.399Z,11.93
2023-03-12T22:31:04.088Z,21.30
2023-03-12T22:33:31.540Z,16.03
2023-03-12T22:35:58.944Z,12.10
2023-03-12T22:38:26.503Z,9.43
2023-03-12T22:40:55.749Z,14.77
2023-03-12T22:43:25.601Z,11.70
2023-03-12T22:45:55.658Z,12.13
2023-03-12T22:48:23.331Z,11.60
2023-03-12T22:50:54.755Z,14.37
2023-03-12T22:53:21.943Z,10.90
2023-03-12T22:56:00.067Z,9.87
2023-03-12T22:58:28.208Z,11.03
2023-03-12T23:01:00.447Z,15.30
2023-03-12T23:03:29.459Z,15.83
2023-03-12T23:05:56.852Z,14.77
2023-03-12T23:08:24.005Z,11.60
2023-03-12T23:10:55.536Z,14.13
2023-03-12T23:13:23.416Z,12.60
2023-03-12T23:15:50.632Z,10.40
2023-03-12T23:18:18.124Z,11.50
2023-03-12T23:20:45.722Z,11.93
2023-03-12T23:23:15.841Z,9.20
2023-03-12T23:25:43.448Z,9.10
2023-03-12T23:28:10.733Z,11.37
2023-03-12T23:30:38.053Z,11.23
2023-03-12T23:33:05.490Z,11.07
2023-03-12T23:35:32.852Z,11.57
2023-03-12T23:38:00.864Z,8.73
2023-03-12T23:40:28.453Z,11.03
2023-03-12T23:42:55.893Z,7.47
2023-03-12T23:45:23.626Z,8.10
2023-03-12T23:47:51.110Z,9.07
2023-03-12T23:50:18.728Z,11.43
2023-03-12T23:52:46.057Z,12.10
2023-03-12T23:55:13.151Z,9.47
2023-03-12T23:57:40.368Z,10.60
